createdAt,value
2019-04-28T00:00:21.574Z,9.10
2019-04-28T00:02:50.797Z,9.00
2019-04-28T00:05:21.027Z,9.20
2019-04-28T00:07:50.551Z,9.40
2019-04-28T00:10:20.905Z,9.20
2019-04-28T00:12:51.100Z,9.00
2019-04-28T00:15:20.829Z,8.90
2019-04-28T00:17:49.421Z,9.00
2019-04-28T00:20:21.331Z,8.80
2019-04-28T00:22:54.317Z,8.90
2019-04-28T00:25:24.411Z,9.00
2019-04-28T00:27:52.840Z,8.80
2019-04-28T00:30:21.798Z,8.90
2019-04-28T00:32:51.871Z,8.70
2019-04-28T00:35:21.738Z,9.00
2019-04-28T00:37:51.717Z,8.90
2019-04-28T00:40:21.722Z,8.80
2019-04-28T00:42:51.211Z,8.80
2019-04-28T00:45:21.407Z,9.00
2019-04-28T00:47:51.051Z,9.00
2019-04-28T00:50:21.601Z,9.00
2019-04-28T00:52:51.672Z,8.90
2019-04-28T00:55:21.015Z,8.90
2019-04-28T00:57:50.938Z,9.00
2019-04-28T01:00:23.103Z,9.20
2019-04-28T01:02:51.759Z,9.10
2019-04-28T01:05:21.350Z,9.00
2019-04-28T01:07:51.098Z,8.60
2019-04-28T01:10:21.042Z,9.10
2019-04-28T01:12:50.971Z,9.10
2019-04-28T01:15:21.213Z,8.90
2019-04-28T01:18:00.749Z,8.70
2019-04-28T01:20:29.672Z,8.60
2019-04-28T01:22:58.143Z,8.50
2019-04-28T01:25:26.595Z,8.60
2019-04-28T01:27:55.702Z,8.50
2019-04-28T01:30:42.967Z,8.50
2019-04-28T01:33:21.832Z,8.50
2019-04-28T01:35:50.357Z,8.60
2019-04-28T01:38:20.481Z,8.60
2019-04-28T01:40:49.933Z,8.50
2019-04-28T01:43:19.609Z,8.30
2019-04-28T01:45:50.104Z,8.50
2019-04-28T01:48:19.859Z,8.40
2019-04-28T01:50:49.966Z,8.40
2019-04-28T01:53:19.925Z,8.40
2019-04-28T01:55:49.510Z,8.50
2019-04-28T01:58:20.476Z,8.30
2019-04-28T02:00:48.317Z,8.30
2019-04-28T02:03:16.814Z,8.30
2019-04-28T02:05:45.269Z,8.30
2019-04-28T02:08:13.700Z,8.40
2019-04-28T02:10:42.135Z,8.30
2019-04-28T02:13:11.417Z,8.70
2019-04-28T02:15:40.112Z,8.40
2019-04-28T02:18:09.942Z,8.30
2019-04-28T02:20:40.058Z,8.40
2019-04-28T02:23:12.839Z,8.30
2019-04-28T02:25:41.277Z,8.30
2019-04-28T02:28:11.737Z,8.40
2019-04-28T02:30:48.627Z,8.30
2019-04-28T02:33:11.131Z,8.20
2019-04-28T02:35:41.871Z,8.30
2019-04-28T02:38:11.491Z,8.20
2019-04-28T02:40:40.720Z,8.20
2019-04-28T02:43:11.463Z,8.10
2019-04-28T02:45:41.214Z,8.40
2019-04-28T02:48:11.559Z,8.20
2019-04-28T02:50:47.347Z,8.10
2019-04-28T02:53:23.193Z,8.10
2019-04-28T02:55:51.639Z,8.10
2019-04-28T02:58:22.373Z,8.20
2019-04-28T03:01:02.754Z,8.10
2019-04-28T03:03:21.233Z,8.20
2019-04-28T03:05:51.250Z,8.20
2019-04-28T03:08:21.404Z,8.40
2019-04-28T03:10:50.879Z,8.30
2019-04-28T03:13:20.896Z,8.30
2019-04-28T03:15:51.563Z,8.40
2019-04-28T03:18:21.458Z,8.40
2019-04-28T03:20:51.474Z,8.60
2019-04-28T03:23:20.848Z,8.50
2019-04-28T03:26:06.789Z,8.60
2019-04-28T03:28:41.450Z,8.30
2019-04-28T03:31:40.538Z,8.30
2019-04-28T03:33:48.738Z,8.40
2019-04-28T03:36:15.447Z,8.50
2019-04-28T03:38:42.322Z,8.30
2019-04-28T03:41:11.319Z,8.30
2019-04-28T03:43:40.613Z,8.20
2019-04-28T03:46:22.690Z,8.20
2019-04-28T03:48:51.274Z,8.20
2019-04-28T03:51:21.188Z,8.30
2019-04-28T03:53:50.700Z,8.60
2019-04-28T03:56:20.953Z,8.50
2019-04-28T03:58:50.438Z,8.40
2019-04-28T04:01:20.715Z,8.40
2019-04-28T04:03:51.556Z,8.60
2019-04-28T04:06:22.367Z,8.50
2019-04-28T04:08:50.624Z,8.50
2019-04-28T04:11:23.619Z,8.70
2019-04-28T04:14:01.707Z,8.60
2019-04-28T04:16:34.167Z,8.50
2019-04-28T04:19:06.946Z,8.60
2019-04-28T04:21:35.393Z,9.00
2019-04-28T04:24:04.068Z,9.00
2019-04-28T04:26:33.630Z,8.80
2019-04-28T04:29:02.228Z,8.70
2019-04-28T04:31:31.777Z,8.80
2019-04-28T04:34:03.022Z,8.80
2019-04-28T04:36:31.122Z,8.80
2019-04-28T04:39:01.820Z,8.80
2019-04-28T04:41:30.566Z,8.70
2019-04-28T04:44:01.176Z,8.70
2019-04-28T04:46:31.357Z,8.70
2019-04-28T04:49:00.684Z,8.50
2019-04-28T04:51:30.650Z,8.60
2019-04-28T04:54:01.218Z,8.80
2019-04-28T04:56:30.234Z,8.80
2019-04-28T04:59:02.333Z,8.80
2019-04-28T05:01:30.755Z,8.70
2019-04-28T05:04:00.841Z,8.70
2019-04-28T05:06:41.207Z,9.00
2019-04-28T05:09:10.407Z,8.90
2019-04-28T05:11:40.009Z,8.70
2019-04-28T05:14:11.593Z,8.80
2019-04-28T05:16:39.836Z,9.10
2019-04-28T05:19:10.082Z,9.10
2019-04-28T05:21:40.151Z,9.00
2019-04-28T05:24:26.711Z,9.10
2019-04-28T05:26:55.219Z,9.10
2019-04-28T05:29:26.995Z,9.00
2019-04-28T05:31:54.861Z,9.00
2019-04-28T05:34:24.515Z,9.10
2019-04-28T05:36:53.111Z,9.10
2019-04-28T05:39:21.687Z,9.10
2019-04-28T05:41:50.581Z,9.20
2019-04-28T05:44:20.201Z,9.20
2019-04-28T05:46:50.611Z,9.10
2019-04-28T05:49:21.108Z,9.10
2019-04-28T05:51:51.182Z,9.20
2019-04-28T05:54:33.016Z,9.20
2019-04-28T05:57:11.702Z,9.40
2019-04-28T05:59:47.338Z,9.60
2019-04-28T06:02:21.839Z,9.70
2019-04-28T06:04:50.046Z,9.60
2019-04-28T06:07:22.582Z,9.70
2019-04-28T06:09:52.670Z,10.00
2019-04-28T06:12:21.590Z,9.90
2019-04-28T06:14:50.305Z,9.80
2019-04-28T06:17:20.639Z,10.00
2019-04-28T06:19:50.406Z,10.00
2019-04-28T06:22:19.062Z,10.50
2019-04-28T06:24:47.584Z,10.40
2019-04-28T06:27:16.154Z,10.40
2019-04-28T06:29:44.594Z,10.50
2019-04-28T06:32:13.103Z,10.60
2019-04-28T06:34:41.569Z,10.50
2019-04-28T06:37:10.005Z,10.70
2019-04-28T06:39:38.524Z,10.70
2019-04-28T06:42:07.019Z,10.30
2019-04-28T06:44:35.483Z,10.20
2019-04-28T06:47:04.055Z,10.10
2019-04-28T06:49:32.503Z,10.30
2019-04-28T06:52:00.963Z,10.30
2019-04-28T06:54:29.418Z,10.50
2019-04-28T06:56:57.875Z,10.40
2019-04-28T06:59:26.388Z,10.60
2019-04-28T07:01:54.833Z,10.60
2019-04-28T07:04:23.285Z,10.90
2019-04-28T07:06:51.749Z,11.00
2019-04-28T07:09:20.300Z,11.30
2019-04-28T07:11:48.823Z,11.30
2019-04-28T07:14:17.326Z,11.30
2019-04-28T07:16:45.795Z,11.20
2019-04-28T07:19:14.511Z,11.40
2019-04-28T07:21:53.560Z,11.20
2019-04-28T07:24:22.057Z,11.10
2019-04-28T07:26:50.513Z,11.20
2019-04-28T07:29:19.027Z,10.80
2019-04-28T07:31:47.633Z,10.90
2019-04-28T07:34:16.272Z,10.80
2019-04-28T07:36:44.801Z,10.30
2019-04-28T07:39:13.240Z,10.50
2019-04-28T07:41:41.732Z,10.70
2019-04-28T07:44:10.202Z,10.30
2019-04-28T07:46:38.681Z,10.30
2019-04-28T07:49:07.110Z,10.10
2019-04-28T07:51:40.165Z,10.00
2019-04-28T07:54:10.242Z,9.90
2019-04-28T07:56:38.702Z,10.30
2019-04-28T07:59:10.130Z,10.10
2019-04-28T08:01:38.043Z,9.70
2019-04-28T08:04:06.484Z,9.90
2019-04-28T08:06:34.946Z,10.00
2019-04-28T08:09:05.142Z,9.80
2019-04-28T08:11:33.598Z,9.80
2019-04-28T08:14:02.045Z,10.00
2019-04-28T08:16:30.498Z,9.80
2019-04-28T08:18:58.941Z,9.90
2019-04-28T08:21:27.400Z,10.00
2019-04-28T08:23:55.830Z,10.10
2019-04-28T08:26:24.313Z,10.20
2019-04-28T08:28:52.836Z,10.20
2019-04-28T08:31:22.915Z,10.30
2019-04-28T08:34:02.307Z,10.30
2019-04-28T08:36:25.915Z,10.20
2019-04-28T08:38:54.377Z,10.20
2019-04-28T08:41:22.830Z,10.00
2019-04-28T08:43:51.359Z,10.30
2019-04-28T08:46:19.794Z,10.80
2019-04-28T08:48:48.270Z,10.90
2019-04-28T08:51:16.711Z,11.20
2019-04-28T08:53:45.157Z,11.70
2019-04-28T08:56:13.594Z,11.90
2019-04-28T08:58:42.078Z,12.50
2019-04-28T09:01:10.591Z,12.90
2019-04-28T09:03:39.061Z,13.00
2019-04-28T09:06:07.504Z,13.10
2019-04-28T09:08:35.973Z,12.90
2019-04-28T09:11:04.435Z,13.00
2019-04-28T09:13:32.908Z,13.00
2019-04-28T09:16:01.780Z,13.50
2019-04-28T09:18:30.256Z,13.30
2019-04-28T09:20:58.789Z,13.30
2019-04-28T09:23:27.233Z,12.90
2019-04-28T09:25:55.772Z,12.80
2019-04-28T09:28:24.296Z,12.60
2019-04-28T09:30:52.738Z,12.90
2019-04-28T09:33:21.210Z,13.30
2019-04-28T09:35:49.646Z,14.00
2019-04-28T09:38:18.140Z,14.20
2019-04-28T09:40:46.725Z,14.60
2019-04-28T09:43:16.820Z,14.30
2019-04-28T09:45:46.911Z,14.00
2019-04-28T09:48:15.446Z,13.40
2019-04-28T09:50:43.876Z,13.90
2019-04-28T09:53:12.328Z,15.00
2019-04-28T09:55:40.802Z,14.90
2019-04-28T09:58:09.326Z,14.70
2019-04-28T10:00:38.981Z,14.60
2019-04-28T10:03:07.428Z,13.80
2019-04-28T10:05:35.906Z,13.40
2019-04-28T10:08:04.823Z,12.70
2019-04-28T10:10:33.279Z,12.70
2019-04-28T10:13:01.729Z,12.90
2019-04-28T10:15:30.252Z,12.70
2019-04-28T10:17:58.712Z,12.80
2019-04-28T10:20:27.173Z,13.10
2019-04-28T10:22:55.620Z,13.30
2019-04-28T10:25:24.161Z,13.60
2019-04-28T10:27:52.595Z,14.80
2019-04-28T10:30:21.158Z,16.80
2019-04-28T10:32:49.611Z,19.20
2019-04-28T10:35:18.085Z,18.20
2019-04-28T10:37:46.661Z,16.80
2019-04-28T10:40:32.641Z,15.70
2019-04-28T10:43:01.075Z,15.40
2019-04-28T10:45:31.215Z,15.50
2019-04-28T10:47:59.691Z,15.40
2019-04-28T10:50:28.242Z,14.90
2019-04-28T10:52:56.779Z,14.90
2019-04-28T10:55:25.232Z,14.40
2019-04-28T10:57:53.658Z,14.50
2019-04-28T11:00:23.922Z,14.60
2019-04-28T11:02:52.365Z,14.60
2019-04-28T11:05:25.433Z,14.50
2019-04-28T11:07:55.056Z,14.20
2019-04-28T11:10:23.520Z,14.50
2019-04-28T11:12:51.973Z,14.10
2019-04-28T11:15:22.151Z,14.10
2019-04-28T11:17:50.611Z,14.00
2019-04-28T11:20:19.059Z,14.10
2019-04-28T11:22:47.550Z,14.90
2019-04-28T11:25:16.092Z,15.80
2019-04-28T11:27:44.649Z,15.30
2019-04-28T11:30:14.059Z,15.10
2019-04-28T11:32:44.387Z,14.80
2019-04-28T11:35:21.987Z,14.60
2019-04-28T11:37:47.460Z,14.70
2019-04-28T11:40:15.975Z,14.70
2019-04-28T11:42:44.450Z,14.90
2019-04-28T11:45:13.283Z,14.90
2019-04-28T11:47:41.783Z,14.90
2019-04-28T11:50:10.524Z,15.40
2019-04-28T11:52:38.992Z,16.90
2019-04-28T11:55:07.593Z,17.60
2019-04-28T11:57:36.113Z,15.90
2019-04-28T12:00:07.134Z,15.90
2019-04-28T12:02:35.589Z,15.40
2019-04-28T12:05:05.171Z,15.10
2019-04-28T12:07:33.724Z,15.20
2019-04-28T12:10:05.370Z,15.80
2019-04-28T12:12:44.308Z,17.00
2019-04-28T12:15:17.294Z,19.10
2019-04-28T12:17:56.093Z,19.80
2019-04-28T12:20:26.217Z,18.30
2019-04-28T12:22:54.675Z,17.60
2019-04-28T12:25:23.160Z,18.00
2019-04-28T12:27:51.636Z,18.00
2019-04-28T12:30:20.283Z,19.00
2019-04-28T12:32:48.731Z,20.50
2019-04-28T12:35:18.528Z,20.70
2019-04-28T12:37:47.152Z,20.90
2019-04-28T12:40:15.853Z,21.40
2019-04-28T12:42:44.374Z,22.10
2019-04-28T12:45:13.069Z,22.10
2019-04-28T12:47:41.511Z,22.50
2019-04-28T12:50:12.058Z,20.50
2019-04-28T12:52:40.577Z,21.60
2019-04-28T12:55:10.143Z,20.90
2019-04-28T12:57:38.669Z,21.30
2019-04-28T13:00:09.409Z,21.50
2019-04-28T13:02:47.970Z,20.60
2019-04-28T13:05:18.070Z,19.10
2019-04-28T13:07:46.536Z,21.10
2019-04-28T13:10:15.133Z,20.90
2019-04-28T13:12:43.581Z,22.00
2019-04-28T13:15:12.112Z,22.30
2019-04-28T13:17:40.557Z,20.10
2019-04-28T13:20:09.869Z,18.70
2019-04-28T13:22:38.340Z,18.60
2019-04-28T13:25:07.244Z,18.40
2019-04-28T13:27:35.728Z,17.60
2019-04-28T13:30:05.935Z,17.30
2019-04-28T13:32:34.440Z,17.20
2019-04-28T13:35:03.053Z,16.70
2019-04-28T13:37:31.571Z,16.70
2019-04-28T13:40:04.146Z,16.80
2019-04-28T13:42:32.671Z,16.50
2019-04-28T13:45:02.875Z,16.20
2019-04-28T13:47:31.395Z,16.30
2019-04-28T13:50:04.311Z,16.40
2019-04-28T13:52:32.861Z,16.30
2019-04-28T13:55:08.669Z,16.50
2019-04-28T13:57:37.122Z,16.80
2019-04-28T14:00:10.298Z,16.80
2019-04-28T14:02:42.897Z,16.90
2019-04-28T14:05:15.977Z,17.50
2019-04-28T14:07:44.441Z,17.70
2019-04-28T14:10:12.977Z,16.90
2019-04-28T14:12:41.487Z,17.00
2019-04-28T14:15:10.290Z,17.60
2019-04-28T14:17:38.916Z,18.60
2019-04-28T14:20:08.679Z,18.90
2019-04-28T14:22:37.150Z,18.80
2019-04-28T14:25:06.944Z,18.80
2019-04-28T14:27:35.484Z,18.20
2019-04-28T14:30:08.510Z,18.40
2019-04-28T14:32:38.828Z,18.20
2019-04-28T14:35:07.554Z,18.40
2019-04-28T14:37:36.045Z,18.10
2019-04-28T14:40:06.213Z,18.10
2019-04-28T14:42:34.700Z,17.80
2019-04-28T14:45:03.527Z,17.90
2019-04-28T14:47:32.005Z,17.70
2019-04-28T14:50:02.768Z,18.00
2019-04-28T14:52:30.622Z,17.90
2019-04-28T14:54:59.110Z,17.50
2019-04-28T14:57:27.546Z,17.10
2019-04-28T14:59:58.145Z,17.10
2019-04-28T15:02:43.848Z,17.20
2019-04-28T15:05:23.455Z,17.70
2019-04-28T15:08:09.924Z,17.90
2019-04-28T15:10:57.874Z,17.80
2019-04-28T15:13:26.822Z,16.90
2019-04-28T15:15:55.328Z,17.30
2019-04-28T15:18:23.813Z,17.50
2019-04-28T15:20:52.351Z,16.90
2019-04-28T15:23:20.892Z,16.80
2019-04-28T15:25:49.392Z,16.80
2019-04-28T15:28:17.950Z,16.90
2019-04-28T15:30:46.423Z,16.90
2019-04-28T15:33:14.870Z,17.10
2019-04-28T15:35:43.404Z,17.00
2019-04-28T15:38:11.862Z,17.10
2019-04-28T15:40:40.405Z,17.00
2019-04-28T15:43:08.840Z,17.00
2019-04-28T15:45:37.299Z,17.00
2019-04-28T15:48:05.902Z,16.90
2019-04-28T15:50:34.368Z,16.60
2019-04-28T15:53:02.878Z,16.70
2019-04-28T15:55:32.989Z,16.40
2019-04-28T15:58:03.086Z,16.20
2019-04-28T16:00:31.618Z,15.90
2019-04-28T16:03:00.064Z,16.00
2019-04-28T16:05:28.522Z,16.00
2019-04-28T16:07:56.970Z,16.10
2019-04-28T16:10:25.415Z,16.10
2019-04-28T16:12:53.902Z,15.90
2019-04-28T16:15:22.414Z,15.80
2019-04-28T16:17:50.971Z,15.90
2019-04-28T16:20:19.470Z,15.90
2019-04-28T16:22:47.971Z,15.80
2019-04-28T16:25:16.413Z,15.70
2019-04-28T16:27:44.873Z,15.50
2019-04-28T16:30:13.532Z,15.50
2019-04-28T16:32:42.048Z,15.60
2019-04-28T16:35:10.559Z,15.40
2019-04-28T16:37:39.370Z,15.40
2019-04-28T16:40:09.607Z,15.40
2019-04-28T16:42:38.885Z,15.20
2019-04-28T16:45:08.207Z,15.20
2019-04-28T16:47:36.720Z,15.00
2019-04-28T16:50:06.975Z,15.20
2019-04-28T16:52:35.665Z,14.90
2019-04-28T16:55:16.578Z,14.60
2019-04-28T16:57:52.630Z,14.50
2019-04-28T17:00:28.363Z,14.40
2019-04-28T17:02:57.714Z,14.40
2019-04-28T17:05:26.303Z,14.50
2019-04-28T17:07:54.848Z,14.30
2019-04-28T17:10:23.322Z,14.30
2019-04-28T17:12:51.860Z,14.10
2019-04-28T17:15:20.345Z,14.20
2019-04-28T17:17:48.880Z,13.90
2019-04-28T17:20:17.565Z,14.00
2019-04-28T17:22:46.023Z,13.90
2019-04-28T17:25:14.630Z,13.80
2019-04-28T17:27:43.094Z,14.00
2019-04-28T17:30:12.078Z,13.80
2019-04-28T17:32:40.616Z,13.70
2019-04-28T17:35:09.228Z,13.70
2019-04-28T17:37:37.694Z,13.70
2019-04-28T17:40:06.968Z,13.60
2019-04-28T17:42:35.677Z,13.50
2019-04-28T17:45:08.311Z,13.60
2019-04-28T17:47:37.273Z,13.50
2019-04-28T17:50:06.159Z,13.60
2019-04-28T17:52:34.674Z,13.30
2019-04-28T17:55:03.998Z,13.20
2019-04-28T17:57:32.573Z,13.20
2019-04-28T18:00:05.417Z,13.20
2019-04-28T18:02:35.495Z,13.20
2019-04-28T18:05:05.838Z,13.10
2019-04-28T18:07:35.930Z,13.00
2019-04-28T18:10:06.899Z,13.00
2019-04-28T18:12:35.986Z,12.80
2019-04-28T18:15:08.862Z,12.90
2019-04-28T18:17:54.731Z,12.90
2019-04-28T18:20:23.279Z,12.90
2019-04-28T18:22:51.733Z,12.80
2019-04-28T18:25:20.267Z,12.80
2019-04-28T18:27:48.795Z,12.70
2019-04-28T18:30:19.029Z,12.60
2019-04-28T18:32:58.136Z,12.60
2019-04-28T18:35:30.764Z,12.60
2019-04-28T18:38:03.905Z,12.50
2019-04-28T18:40:50.016Z,12.40
2019-04-28T18:43:22.970Z,12.40
2019-04-28T18:45:51.541Z,12.40
2019-04-28T18:48:20.006Z,12.40
2019-04-28T18:50:48.509Z,12.30
2019-04-28T18:53:17.125Z,12.20
2019-04-28T18:55:45.668Z,12.10
2019-04-28T18:58:14.239Z,12.20
2019-04-28T19:00:44.392Z,12.10
2019-04-28T19:03:12.870Z,12.10
2019-04-28T19:05:43.054Z,12.00
2019-04-28T19:08:13.298Z,12.00
2019-04-28T19:10:45.805Z,11.90
2019-04-28T19:13:33.542Z,12.00
2019-04-28T19:16:12.301Z,11.90
2019-04-28T19:18:42.370Z,11.90
2019-04-28T19:21:10.859Z,11.80
2019-04-28T19:23:39.316Z,11.70
2019-04-28T19:26:07.759Z,11.80
2019-04-28T19:28:36.224Z,11.80
2019-04-28T19:31:04.748Z,11.80
2019-04-28T19:33:33.208Z,11.80
2019-04-28T19:36:01.670Z,11.70
2019-04-28T19:38:32.338Z,11.70
2019-04-28T19:41:03.229Z,11.70
2019-04-28T19:43:31.679Z,11.90
2019-04-28T19:46:01.903Z,11.70
2019-04-28T19:48:30.456Z,11.60
2019-04-28T19:50:59.060Z,11.70
2019-04-28T19:53:27.661Z,11.60
2019-04-28T19:56:12.626Z,11.60
2019-04-28T19:58:45.755Z,11.60
2019-04-28T20:01:21.827Z,11.80
2019-04-28T20:03:50.415Z,11.70
2019-04-28T20:06:18.945Z,11.60
2019-04-28T20:08:47.499Z,11.70
2019-04-28T20:11:16.012Z,11.50
2019-04-28T20:13:44.467Z,11.70
2019-04-28T20:16:12.922Z,11.60
2019-04-28T20:18:41.505Z,11.70
2019-04-28T20:21:09.990Z,11.70
2019-04-28T20:23:38.458Z,11.70
2019-04-28T20:26:07.080Z,11.60
2019-04-28T20:28:35.599Z,11.60
2019-04-28T20:31:04.138Z,11.60
2019-04-28T20:33:32.591Z,11.40
2019-04-28T20:36:02.961Z,11.40
2019-04-28T20:38:32.923Z,11.40
2019-04-28T20:41:12.211Z,11.40
2019-04-28T20:43:40.665Z,11.40
2019-04-28T20:46:09.310Z,11.30
2019-04-28T20:48:37.791Z,11.30
2019-04-28T20:51:06.242Z,11.30
2019-04-28T20:53:34.708Z,11.20
2019-04-28T20:56:03.192Z,11.30
2019-04-28T20:58:31.698Z,11.20
2019-04-28T21:01:00.240Z,11.20
2019-04-28T21:03:28.758Z,11.00
2019-04-28T21:05:57.217Z,11.20
2019-04-28T21:08:25.670Z,11.20
2019-04-28T21:10:54.125Z,11.20
2019-04-28T21:13:22.624Z,11.20
2019-04-28T21:15:51.144Z,11.00
2019-04-28T21:18:19.740Z,11.10
2019-04-28T21:20:48.264Z,11.00
2019-04-28T21:23:16.714Z,11.00
2019-04-28T21:25:45.326Z,11.00
2019-04-28T21:28:13.778Z,10.80
2019-04-28T21:30:42.258Z,10.90
2019-04-28T21:33:10.698Z,10.90
2019-04-28T21:35:39.180Z,10.80
2019-04-28T21:38:07.610Z,10.90
2019-04-28T21:40:36.643Z,10.90
2019-04-28T21:43:06.742Z,10.80
2019-04-28T21:45:52.522Z,10.80
2019-04-28T21:48:34.604Z,10.90
2019-04-28T21:51:03.126Z,10.90
2019-04-28T21:53:31.599Z,10.80
2019-04-28T21:56:00.063Z,10.80
2019-04-28T21:58:33.204Z,10.80
2019-04-28T22:00:58.744Z,10.80
2019-04-28T22:03:27.319Z,10.80
2019-04-28T22:05:55.771Z,10.70
2019-04-28T22:08:24.207Z,10.70
2019-04-28T22:10:52.848Z,10.60
2019-04-28T22:13:21.376Z,10.60
2019-04-28T22:15:50.239Z,10.60
2019-04-28T22:18:18.743Z,10.60
2019-04-28T22:20:47.198Z,10.50
2019-04-28T22:23:18.595Z,10.40
2019-04-28T22:25:47.407Z,10.40
2019-04-28T22:28:15.871Z,10.40
2019-04-28T22:30:44.333Z,10.30
2019-04-28T22:33:12.765Z,10.40
2019-04-28T22:35:41.207Z,10.30
2019-04-28T22:38:09.664Z,10.20
2019-04-28T22:40:38.097Z,10.10
2019-04-28T22:43:06.618Z,10.20
2019-04-28T22:45:35.057Z,10.20
2019-04-28T22:48:04.363Z,10.20
2019-04-28T22:50:41.281Z,10.20
2019-04-28T22:53:09.974Z,10.10
2019-04-28T22:55:40.057Z,10.00
2019-04-28T22:58:28.312Z,10.00
2019-04-28T23:00:58.459Z,10.00
2019-04-28T23:03:28.698Z,9.90
2019-04-28T23:05:57.143Z,10.00
2019-04-28T23:08:25.926Z,10.00
2019-04-28T23:10:54.384Z,10.00
2019-04-28T23:13:23.070Z,10.10
2019-04-28T23:15:51.778Z,9.90
2019-04-28T23:18:20.237Z,9.90
2019-04-28T23:20:50.313Z,9.90
2019-04-28T23:23:18.798Z,10.00
2019-04-28T23:25:47.255Z,9.80
2019-04-28T23:28:15.764Z,9.80
2019-04-28T23:30:46.303Z,10.00
2019-04-28T23:33:14.766Z,9.80
2019-04-28T23:35:43.268Z,9.80
2019-04-28T23:38:11.723Z,9.70
2019-04-28T23:40:41.796Z,9.80
2019-04-28T23:43:11.898Z,9.80
2019-04-28T23:45:40.332Z,9.80
2019-04-28T23:48:08.767Z,9.80
2019-04-28T23:50:38.856Z,9.90
2019-04-28T23:53:11.638Z,9.90
2019-04-28T23:55:40.110Z,9.90
2019-04-28T23:58:08.586Z,10.00
